This is the latest recevied weather packets stored in our database for station/object BMCB-18. If no packets are shown the sender has not sent any weather packets the latest 10 day(s).
| Time | Temp. | Humidity | Pressure | Rain* | Wind** | Luminosity | Snow |
|---|---|---|---|---|---|---|---|
| 1777858243 | 12.22° C | 92% | 1014 hPa | 0 mm | - | 0 W/m² | - |
| 1777855846 | 12.22° C | 93% | 1014 hPa | 0 mm | - | 0 W/m² | - |
| 1777851649 | 12.22° C | 94% | 1014.1 hPa | 0 mm | - | 0 W/m² | - |
| 1777849247 | 12.22° C | 94% | 1014.3 hPa | 0 mm | - | 0 W/m² | - |
| 1777846247 | 12.78° C | 94% | 1014.4 hPa | 0 mm | - | 0 W/m² | - |
| 1777845050 | 12.78° C | 94% | 1014.3 hPa | 0 mm | - | 0 W/m² | - |
| 1777841448 | 12.78° C | 95% | 1014.4 hPa | 0 mm | - | 0 W/m² | - |
| 1777829448 | 13.89° C | 92% | 1013.6 hPa | 0 mm | - | 42 W/m² | - |
| 1777820444 | 14.44° C | 90% | 1013.8 hPa | 0 mm | - | 188 W/m² | - |
| 1777816245 | 14.44° C | 93% | 1014.1 hPa | 0 mm | - | 270 W/m² | - |
| 1777815044 | 13.89° C | 95% | 1014.4 hPa | 0.51 mm | - | 202 W/m² | - |
| 1777812646 | 13.33° C | 97% | 1014.6 hPa | 2.03 mm | - | 298 W/m² | - |
| 1777809646 | 12.22° C | 97% | 1014.5 hPa | 3.05 mm | - | 164 W/m² | - |
| 1777807847 | 12.22° C | 95% | 1014.8 hPa | 1.78 mm | - | 68 W/m² | - |
| 1777806051 | 12.78° C | 94% | 1014.6 hPa | 1.78 mm | - | 176 W/m² | - |
| 1777796444 | 15° C | 69% | 1013.8 hPa | 0 mm | - | 236 W/m² | - |
| 1777795845 | 15° C | 70% | 1013.7 hPa | 0 mm | - | 268 W/m² | - |
| 1777795249 | 15° C | 72% | 1013.8 hPa | 0 mm | - | 264 W/m² | - |
| 1777792248 | 14.44° C | 77% | 1013.4 hPa | 0 mm | - | 152 W/m² | - |
| 1777789244 | 13.89° C | 82% | 1013.5 hPa | 0 mm | - | 134 W/m² | - |
| 1777787446 | 13.89° C | 85% | 1013.6 hPa | 0 mm | - | 82 W/m² | - |
| 1777785646 | 13.33° C | 90% | 1013.6 hPa | 0 mm | - | 48 W/m² | - |
| 1777781442 | 13.89° C | 91% | 1013.9 hPa | 0 mm | - | 0 W/m² | - |
| 1777780842 | 13.33° C | 91% | 1013.9 hPa | 0 mm | - | 0 W/m² | - |
| 1777775442 | 14.44° C | 89% | 1014 hPa | 0 mm | - | 0 W/m² | - |
* Rain latest hour (hover to see other rain measurements)
** Current wind speed in m/s (hover to see current wind gust speed)